sensor_id;sensor_type;location;lat;lon;timestamp;P1;durP1;ratioP1;P2;durP2;ratioP2
59273;SDS011;45044;41.572;24.730;2023-05-17T00:01:41;10.57;;;3.55;;
59273;SDS011;45044;41.572;24.730;2023-05-17T00:04:08;11.98;;;3.53;;
59273;SDS011;45044;41.572;24.730;2023-05-17T00:06:35;10.02;;;4.72;;
59273;SDS011;45044;41.572;24.730;2023-05-17T00:09:02;15.43;;;5.93;;
59273;SDS011;45044;41.572;24.730;2023-05-17T00:11:29;13.88;;;6.15;;
59273;SDS011;45044;41.572;24.730;2023-05-17T00:13:55;10.73;;;3.80;;
59273;SDS011;45044;41.572;24.730;2023-05-17T00:16:22;7.55;;;3.50;;
59273;SDS011;45044;41.572;24.730;2023-05-17T00:18:49;12.57;;;4.35;;
59273;SDS011;45044;41.572;24.730;2023-05-17T00:21:16;12.77;;;3.67;;
59273;SDS011;45044;41.572;24.730;2023-05-17T00:23:44;12.50;;;3.65;;
59273;SDS011;45044;41.572;24.730;2023-05-17T00:26:10;9.20;;;3.55;;
59273;SDS011;45044;41.572;24.730;2023-05-17T00:28:38;7.15;;;3.13;;
59273;SDS011;45044;41.572;24.730;2023-05-17T00:31:05;11.60;;;4.32;;
59273;SDS011;45044;41.572;24.730;2023-05-17T00:33:32;13.30;;;4.88;;
59273;SDS011;45044;41.572;24.730;2023-05-17T00:35:59;16.25;;;8.38;;
59273;SDS011;45044;41.572;24.730;2023-05-17T00:38:26;16.30;;;5.03;;
59273;SDS011;45044;41.572;24.730;2023-05-17T00:40:53;10.98;;;3.33;;
59273;SDS011;45044;41.572;24.730;2023-05-17T00:43:20;8.35;;;3.33;;
59273;SDS011;45044;41.572;24.730;2023-05-17T00:45:46;9.77;;;3.83;;
59273;SDS011;45044;41.572;24.730;2023-05-17T00:48:15;11.20;;;3.42;;
59273;SDS011;45044;41.572;24.730;2023-05-17T00:50:42;11.32;;;3.33;;
59273;SDS011;45044;41.572;24.730;2023-05-17T00:53:09;7.15;;;2.70;;
59273;SDS011;45044;41.572;24.730;2023-05-17T00:55:42;10.68;;;2.92;;
59273;SDS011;45044;41.572;24.730;2023-05-17T00:58:10;8.00;;;3.40;;
59273;SDS011;45044;41.572;24.730;2023-05-17T01:00:37;7.05;;;2.38;;
59273;SDS011;45044;41.572;24.730;2023-05-17T01:03:04;6.57;;;2.60;;
59273;SDS011;45044;41.572;24.730;2023-05-17T01:05:31;12.15;;;4.07;;
59273;SDS011;45044;41.572;24.730;2023-05-17T01:07:58;10.27;;;3.58;;
59273;SDS011;45044;41.572;24.730;2023-05-17T01:10:27;11.40;;;3.83;;
59273;SDS011;45044;41.572;24.730;2023-05-17T01:16:09;9.80;;;3.25;;
59273;SDS011;45044;41.572;24.730;2023-05-17T01:18:47;11.57;;;3.72;;
59273;SDS011;45044;41.572;24.730;2023-05-17T01:24:15;9.48;;;4.15;;
59273;SDS011;45044;41.572;24.730;2023-05-17T01:27:09;8.82;;;3.35;;
59273;SDS011;45044;41.572;24.730;2023-05-17T01:29:39;12.25;;;4.05;;
59273;SDS011;45044;41.572;24.730;2023-05-17T01:32:10;10.15;;;4.20;;
59273;SDS011;45044;41.572;24.730;2023-05-17T01:34:38;18.05;;;6.07;;
59273;SDS011;45044;41.572;24.730;2023-05-17T01:37:08;12.98;;;5.82;;
59273;SDS011;45044;41.572;24.730;2023-05-17T01:39:35;14.30;;;4.32;;
59273;SDS011;45044;41.572;24.730;2023-05-17T01:42:45;13.02;;;5.53;;
59273;SDS011;45044;41.572;24.730;2023-05-17T01:47:44;15.80;;;4.53;;
59273;SDS011;45044;41.572;24.730;2023-05-17T01:50:17;9.38;;;3.85;;
59273;SDS011;45044;41.572;24.730;2023-05-17T01:52:52;10.45;;;4.93;;
59273;SDS011;45044;41.572;24.730;2023-05-17T01:58:26;16.20;;;5.43;;
59273;SDS011;45044;41.572;24.730;2023-05-17T02:00:56;15.85;;;6.45;;
59273;SDS011;45044;41.572;24.730;2023-05-17T02:03:26;41.25;;;9.35;;
59273;SDS011;45044;41.572;24.730;2023-05-17T02:05:53;14.07;;;6.15;;
59273;SDS011;45044;41.572;24.730;2023-05-17T02:08:20;19.45;;;6.50;;
59273;SDS011;45044;41.572;24.730;2023-05-17T02:10:47;15.50;;;6.63;;
59273;SDS011;45044;41.572;24.730;2023-05-17T02:13:13;17.33;;;6.20;;
59273;SDS011;45044;41.572;24.730;2023-05-17T02:15:40;16.27;;;6.60;;
59273;SDS011;45044;41.572;24.730;2023-05-17T02:18:08;18.60;;;8.73;;
59273;SDS011;45044;41.572;24.730;2023-05-17T02:20:37;10.02;;;3.95;;
59273;SDS011;45044;41.572;24.730;2023-05-17T02:23:03;14.85;;;5.75;;
59273;SDS011;45044;41.572;24.730;2023-05-17T02:25:30;15.25;;;4.95;;
59273;SDS011;45044;41.572;24.730;2023-05-17T02:27:57;14.10;;;5.30;;
59273;SDS011;45044;41.572;24.730;2023-05-17T02:30:24;14.73;;;5.10;;
59273;SDS011;45044;41.572;24.730;2023-05-17T02:32:50;15.15;;;5.40;;
59273;SDS011;45044;41.572;24.730;2023-05-17T02:35:17;13.57;;;5.47;;
59273;SDS011;45044;41.572;24.730;2023-05-17T02:37:44;15.25;;;5.78;;
59273;SDS011;45044;41.572;24.730;2023-05-17T02:40:11;16.73;;;6.88;;
59273;SDS011;45044;41.572;24.730;2023-05-17T02:42:38;18.45;;;7.05;;
59273;SDS011;45044;41.572;24.730;2023-05-17T02:45:05;13.80;;;5.07;;
59273;SDS011;45044;41.572;24.730;2023-05-17T02:47:33;13.50;;;5.43;;
59273;SDS011;45044;41.572;24.730;2023-05-17T02:50:00;14.57;;;4.80;;
59273;SDS011;45044;41.572;24.730;2023-05-17T02:52:26;12.77;;;4.75;;
59273;SDS011;45044;41.572;24.730;2023-05-17T02:54:53;15.68;;;5.25;;
59273;SDS011;45044;41.572;24.730;2023-05-17T02:57:20;12.50;;;5.05;;
59273;SDS011;45044;41.572;24.730;2023-05-17T02:59:47;14.20;;;5.72;;
59273;SDS011;45044;41.572;24.730;2023-05-17T03:02:13;16.00;;;6.97;;
59273;SDS011;45044;41.572;24.730;2023-05-17T03:04:41;15.93;;;7.15;;
59273;SDS011;45044;41.572;24.730;2023-05-17T03:07:08;17.27;;;7.38;;
59273;SDS011;45044;41.572;24.730;2023-05-17T03:09:34;17.45;;;7.25;;
59273;SDS011;45044;41.572;24.730;2023-05-17T03:12:01;14.45;;;7.78;;
59273;SDS011;45044;41.572;24.730;2023-05-17T03:14:28;13.63;;;6.90;;
59273;SDS011;45044;41.572;24.730;2023-05-17T03:16:55;14.48;;;6.90;;
59273;SDS011;45044;41.572;24.730;2023-05-17T03:19:22;16.27;;;7.00;;
59273;SDS011;45044;41.572;24.730;2023-05-17T03:21:49;16.13;;;7.78;;
59273;SDS011;45044;41.572;24.730;2023-05-17T03:24:15;21.50;;;7.80;;
59273;SDS011;45044;41.572;24.730;2023-05-17T03:26:42;23.02;;;8.25;;
59273;SDS011;45044;41.572;24.730;2023-05-17T03:29:09;24.65;;;9.10;;
59273;SDS011;45044;41.572;24.730;2023-05-17T03:31:36;20.30;;;7.93;;
59273;SDS011;45044;41.572;24.730;2023-05-17T03:34:02;21.75;;;8.48;;
59273;SDS011;45044;41.572;24.730;2023-05-17T03:36:29;40.83;;;9.65;;
59273;SDS011;45044;41.572;24.730;2023-05-17T03:38:56;132.95;;;17.17;;
59273;SDS011;45044;41.572;24.730;2023-05-17T03:41:23;40.50;;;11.10;;
59273;SDS011;45044;41.572;24.730;2023-05-17T03:43:50;18.80;;;8.82;;
59273;SDS011;45044;41.572;24.730;2023-05-17T03:46:17;22.20;;;9.60;;
59273;SDS011;45044;41.572;24.730;2023-05-17T03:48:43;25.52;;;12.13;;
59273;SDS011;45044;41.572;24.730;2023-05-17T03:51:10;23.65;;;12.80;;
59273;SDS011;45044;41.572;24.730;2023-05-17T03:53:37;35.55;;;14.45;;
59273;SDS011;45044;41.572;24.730;2023-05-17T03:56:08;68.43;;;16.02;;
59273;SDS011;45044;41.572;24.730;2023-05-17T03:58:36;43.72;;;15.77;;
59273;SDS011;45044;41.572;24.730;2023-05-17T04:01:03;71.32;;;15.50;;
59273;SDS011;45044;41.572;24.730;2023-05-17T04:03:30;48.65;;;13.57;;
59273;SDS011;45044;41.572;24.730;2023-05-17T04:06:02;49.05;;;12.65;;
59273;SDS011;45044;41.572;24.730;2023-05-17T04:08:32;46.25;;;13.90;;
59273;SDS011;45044;41.572;24.730;2023-05-17T04:11:02;29.88;;;13.85;;
59273;SDS011;45044;41.572;24.730;2023-05-17T04:13:35;32.25;;;14.15;;
59273;SDS011;45044;41.572;24.730;2023-05-17T04:16:06;38.13;;;15.25;;
59273;SDS011;45044;41.572;24.730;2023-05-17T04:18:34;40.28;;;17.90;;
59273;SDS011;45044;41.572;24.730;2023-05-17T04:21:02;46.70;;;25.17;;
59273;SDS011;45044;41.572;24.730;2023-05-17T04:23:30;38.03;;;18.00;;
59273;SDS011;45044;41.572;24.730;2023-05-17T04:25:58;36.22;;;16.98;;
59273;SDS011;45044;41.572;24.730;2023-05-17T04:28:25;22.75;;;12.57;;
59273;SDS011;45044;41.572;24.730;2023-05-17T04:30:52;24.63;;;13.30;;
59273;SDS011;45044;41.572;24.730;2023-05-17T04:33:19;26.50;;;15.35;;
59273;SDS011;45044;41.572;24.730;2023-05-17T04:35:52;24.52;;;13.50;;
59273;SDS011;45044;41.572;24.730;2023-05-17T04:38:20;29.27;;;15.00;;
59273;SDS011;45044;41.572;24.730;2023-05-17T04:40:47;28.10;;;16.63;;
59273;SDS011;45044;41.572;24.730;2023-05-17T04:43:14;29.75;;;16.10;;
59273;SDS011;45044;41.572;24.730;2023-05-17T04:45:40;30.95;;;16.90;;
59273;SDS011;45044;41.572;24.730;2023-05-17T04:48:08;31.73;;;16.88;;
59273;SDS011;45044;41.572;24.730;2023-05-17T04:50:35;31.83;;;16.40;;
59273;SDS011;45044;41.572;24.730;2023-05-17T04:53:05;28.48;;;17.38;;
59273;SDS011;45044;41.572;24.730;2023-05-17T04:55:31;32.30;;;16.65;;
59273;SDS011;45044;41.572;24.730;2023-05-17T04:57:58;32.15;;;18.30;;
59273;SDS011;45044;41.572;24.730;2023-05-17T05:00:26;32.63;;;21.80;;
59273;SDS011;45044;41.572;24.730;2023-05-17T05:02:53;33.85;;;20.67;;
59273;SDS011;45044;41.572;24.730;2023-05-17T05:05:20;32.65;;;20.00;;
59273;SDS011;45044;41.572;24.730;2023-05-17T05:07:47;34.83;;;21.63;;
59273;SDS011;45044;41.572;24.730;2023-05-17T05:10:14;29.50;;;19.58;;
59273;SDS011;45044;41.572;24.730;2023-05-17T05:12:41;83.90;;;52.40;;
59273;SDS011;45044;41.572;24.730;2023-05-17T05:15:08;34.95;;;22.60;;
59273;SDS011;45044;41.572;24.730;2023-05-17T05:17:35;30.38;;;20.55;;
59273;SDS011;45044;41.572;24.730;2023-05-17T05:20:02;30.77;;;19.75;;
59273;SDS011;45044;41.572;24.730;2023-05-17T05:22:29;29.73;;;22.58;;
59273;SDS011;45044;41.572;24.730;2023-05-17T05:24:56;29.45;;;17.05;;
59273;SDS011;45044;41.572;24.730;2023-05-17T05:27:23;21.80;;;12.38;;
59273;SDS011;45044;41.572;24.730;2023-05-17T05:29:50;26.95;;;14.23;;
59273;SDS011;45044;41.572;24.730;2023-05-17T05:32:16;27.55;;;16.67;;
59273;SDS011;45044;41.572;24.730;2023-05-17T05:34:44;35.15;;;24.05;;
59273;SDS011;45044;41.572;24.730;2023-05-17T05:37:11;48.92;;;29.83;;
59273;SDS011;45044;41.572;24.730;2023-05-17T05:39:37;34.13;;;23.27;;
59273;SDS011;45044;41.572;24.730;2023-05-17T05:42:04;31.38;;;20.80;;
59273;SDS011;45044;41.572;24.730;2023-05-17T05:44:31;34.53;;;23.70;;
59273;SDS011;45044;41.572;24.730;2023-05-17T05:46:58;29.42;;;20.60;;
59273;SDS011;45044;41.572;24.730;2023-05-17T05:49:25;35.50;;;22.52;;
59273;SDS011;45044;41.572;24.730;2023-05-17T05:51:52;34.95;;;24.02;;
59273;SDS011;45044;41.572;24.730;2023-05-17T05:54:19;30.15;;;21.27;;
59273;SDS011;45044;41.572;24.730;2023-05-17T05:56:45;32.92;;;21.60;;
59273;SDS011;45044;41.572;24.730;2023-05-17T05:59:12;24.40;;;16.25;;
59273;SDS011;45044;41.572;24.730;2023-05-17T06:01:39;34.85;;;23.25;;
59273;SDS011;45044;41.572;24.730;2023-05-17T06:04:06;35.08;;;21.70;;
59273;SDS011;45044;41.572;24.730;2023-05-17T06:06:33;31.58;;;21.30;;
59273;SDS011;45044;41.572;24.730;2023-05-17T06:09:01;32.20;;;18.33;;
59273;SDS011;45044;41.572;24.730;2023-05-17T06:11:28;27.33;;;17.70;;
59273;SDS011;45044;41.572;24.730;2023-05-17T06:13:54;24.27;;;15.25;;
59273;SDS011;45044;41.572;24.730;2023-05-17T06:16:21;18.88;;;11.88;;
59273;SDS011;45044;41.572;24.730;2023-05-17T06:18:48;19.60;;;11.57;;
59273;SDS011;45044;41.572;24.730;2023-05-17T06:21:16;21.25;;;12.35;;
59273;SDS011;45044;41.572;24.730;2023-05-17T06:23:43;24.33;;;13.60;;
59273;SDS011;45044;41.572;24.730;2023-05-17T06:26:10;23.77;;;12.82;;
59273;SDS011;45044;41.572;24.730;2023-05-17T06:28:37;20.75;;;14.15;;
59273;SDS011;45044;41.572;24.730;2023-05-17T06:31:04;26.77;;;15.23;;
59273;SDS011;45044;41.572;24.730;2023-05-17T06:33:31;18.38;;;10.07;;
59273;SDS011;45044;41.572;24.730;2023-05-17T06:35:58;32.20;;;19.65;;
59273;SDS011;45044;41.572;24.730;2023-05-17T06:38:25;26.00;;;16.35;;
59273;SDS011;45044;41.572;24.730;2023-05-17T06:40:53;23.83;;;16.45;;
59273;SDS011;45044;41.572;24.730;2023-05-17T06:43:20;22.40;;;15.65;;
59273;SDS011;45044;41.572;24.730;2023-05-17T06:45:47;20.65;;;12.75;;
59273;SDS011;45044;41.572;24.730;2023-05-17T06:48:14;122.88;;;63.90;;
59273;SDS011;45044;41.572;24.730;2023-05-17T06:50:42;51.58;;;34.90;;
59273;SDS011;45044;41.572;24.730;2023-05-17T06:53:08;20.83;;;12.70;;
59273;SDS011;45044;41.572;24.730;2023-05-17T06:55:35;16.65;;;8.25;;
59273;SDS011;45044;41.572;24.730;2023-05-17T06:58:02;15.43;;;8.02;;
59273;SDS011;45044;41.572;24.730;2023-05-17T07:00:29;15.93;;;7.32;;
59273;SDS011;45044;41.572;24.730;2023-05-17T07:02:57;18.70;;;7.97;;
59273;SDS011;45044;41.572;24.730;2023-05-17T07:05:24;16.52;;;10.32;;
59273;SDS011;45044;41.572;24.730;2023-05-17T07:07:51;12.45;;;7.80;;
59273;SDS011;45044;41.572;24.730;2023-05-17T07:10:18;15.88;;;7.57;;
59273;SDS011;45044;41.572;24.730;2023-05-17T07:12:44;15.48;;;7.38;;
59273;SDS011;45044;41.572;24.730;2023-05-17T07:15:12;16.77;;;8.18;;
59273;SDS011;45044;41.572;24.730;2023-05-17T07:17:39;13.32;;;5.63;;
59273;SDS011;45044;41.572;24.730;2023-05-17T07:20:06;14.38;;;6.05;;
59273;SDS011;45044;41.572;24.730;2023-05-17T07:22:36;15.05;;;7.20;;
59273;SDS011;45044;41.572;24.730;2023-05-17T07:25:03;13.82;;;6.88;;
59273;SDS011;45044;41.572;24.730;2023-05-17T07:27:31;14.15;;;7.13;;
59273;SDS011;45044;41.572;24.730;2023-05-17T07:29:59;13.93;;;6.53;;
59273;SDS011;45044;41.572;24.730;2023-05-17T07:32:26;12.25;;;6.10;;
59273;SDS011;45044;41.572;24.730;2023-05-17T07:34:53;13.63;;;6.80;;
59273;SDS011;45044;41.572;24.730;2023-05-17T07:37:19;12.38;;;5.70;;
59273;SDS011;45044;41.572;24.730;2023-05-17T07:39:46;16.35;;;7.10;;
59273;SDS011;45044;41.572;24.730;2023-05-17T07:42:13;15.98;;;7.95;;
59273;SDS011;45044;41.572;24.730;2023-05-17T07:44:40;15.07;;;6.78;;
59273;SDS011;45044;41.572;24.730;2023-05-17T07:47:07;14.60;;;6.93;;
59273;SDS011;45044;41.572;24.730;2023-05-17T07:49:34;15.95;;;7.55;;
59273;SDS011;45044;41.572;24.730;2023-05-17T07:52:00;14.13;;;6.35;;
59273;SDS011;45044;41.572;24.730;2023-05-17T07:54:28;16.17;;;7.32;;
59273;SDS011;45044;41.572;24.730;2023-05-17T07:56:55;16.73;;;6.93;;
59273;SDS011;45044;41.572;24.730;2023-05-17T07:59:22;13.73;;;7.80;;
59273;SDS011;45044;41.572;24.730;2023-05-17T08:01:49;15.82;;;6.88;;
59273;SDS011;45044;41.572;24.730;2023-05-17T08:04:16;15.48;;;8.23;;
59273;SDS011;45044;41.572;24.730;2023-05-17T08:06:46;17.23;;;6.82;;
59273;SDS011;45044;41.572;24.730;2023-05-17T08:09:13;18.42;;;9.18;;
59273;SDS011;45044;41.572;24.730;2023-05-17T08:11:45;17.00;;;7.13;;
59273;SDS011;45044;41.572;24.730;2023-05-17T08:14:12;11.90;;;7.00;;
59273;SDS011;45044;41.572;24.730;2023-05-17T08:16:44;17.55;;;9.82;;
59273;SDS011;45044;41.572;24.730;2023-05-17T08:19:12;17.23;;;8.18;;
59273;SDS011;45044;41.572;24.730;2023-05-17T08:21:41;14.73;;;7.40;;
59273;SDS011;45044;41.572;24.730;2023-05-17T08:24:10;13.85;;;6.85;;
59273;SDS011;45044;41.572;24.730;2023-05-17T08:26:37;15.68;;;8.52;;
59273;SDS011;45044;41.572;24.730;2023-05-17T08:29:05;19.88;;;9.48;;
59273;SDS011;45044;41.572;24.730;2023-05-17T08:31:31;19.67;;;9.90;;
59273;SDS011;45044;41.572;24.730;2023-05-17T08:33:59;13.80;;;8.02;;
59273;SDS011;45044;41.572;24.730;2023-05-17T08:36:26;16.60;;;9.02;;
59273;SDS011;45044;41.572;24.730;2023-05-17T08:38:53;18.95;;;9.25;;
59273;SDS011;45044;41.572;24.730;2023-05-17T08:41:20;15.10;;;8.23;;
59273;SDS011;45044;41.572;24.730;2023-05-17T08:43:48;18.42;;;8.98;;
59273;SDS011;45044;41.572;24.730;2023-05-17T08:46:15;13.70;;;7.13;;
59273;SDS011;45044;41.572;24.730;2023-05-17T08:48:48;13.18;;;6.93;;
59273;SDS011;45044;41.572;24.730;2023-05-17T08:51:18;15.63;;;7.72;;
59273;SDS011;45044;41.572;24.730;2023-05-17T08:53:45;16.45;;;7.43;;
59273;SDS011;45044;41.572;24.730;2023-05-17T08:56:13;16.50;;;8.38;;
59273;SDS011;45044;41.572;24.730;2023-05-17T08:58:42;12.75;;;7.25;;
59273;SDS011;45044;41.572;24.730;2023-05-17T09:01:23;16.50;;;7.25;;
59273;SDS011;45044;41.572;24.730;2023-05-17T09:03:53;17.63;;;7.55;;
59273;SDS011;45044;41.572;24.730;2023-05-17T09:06:20;19.67;;;10.27;;
59273;SDS011;45044;41.572;24.730;2023-05-17T09:08:51;15.38;;;10.85;;
59273;SDS011;45044;41.572;24.730;2023-05-17T09:11:28;17.67;;;9.43;;
59273;SDS011;45044;41.572;24.730;2023-05-17T09:14:03;17.23;;;10.23;;
59273;SDS011;45044;41.572;24.730;2023-05-17T09:16:36;16.70;;;9.15;;
59273;SDS011;45044;41.572;24.730;2023-05-17T09:19:03;16.33;;;7.75;;
59273;SDS011;45044;41.572;24.730;2023-05-17T09:21:31;14.15;;;7.68;;
59273;SDS011;45044;41.572;24.730;2023-05-17T09:23:59;15.65;;;7.75;;
59273;SDS011;45044;41.572;24.730;2023-05-17T09:26:42;16.75;;;8.32;;
59273;SDS011;45044;41.572;24.730;2023-05-17T09:29:11;13.52;;;7.82;;
59273;SDS011;45044;41.572;24.730;2023-05-17T09:31:39;19.90;;;9.80;;
59273;SDS011;45044;41.572;24.730;2023-05-17T09:34:07;22.02;;;11.10;;
59273;SDS011;45044;41.572;24.730;2023-05-17T09:36:35;18.48;;;9.93;;
59273;SDS011;45044;41.572;24.730;2023-05-17T09:39:04;20.65;;;11.13;;
59273;SDS011;45044;41.572;24.730;2023-05-17T09:41:45;17.92;;;9.13;;
59273;SDS011;45044;41.572;24.730;2023-05-17T09:44:13;14.80;;;7.95;;
59273;SDS011;45044;41.572;24.730;2023-05-17T09:46:44;13.60;;;5.93;;
59273;SDS011;45044;41.572;24.730;2023-05-17T09:49:16;15.00;;;7.53;;
59273;SDS011;45044;41.572;24.730;2023-05-17T09:51:44;17.38;;;8.70;;
59273;SDS011;45044;41.572;24.730;2023-05-17T09:54:12;18.42;;;8.60;;
59273;SDS011;45044;41.572;24.730;2023-05-17T09:56:40;18.02;;;12.07;;
59273;SDS011;45044;41.572;24.730;2023-05-17T09:59:11;28.60;;;25.65;;
59273;SDS011;45044;41.572;24.730;2023-05-17T10:01:39;16.10;;;7.65;;
59273;SDS011;45044;41.572;24.730;2023-05-17T10:04:08;18.70;;;8.27;;
59273;SDS011;45044;41.572;24.730;2023-05-17T10:06:40;12.30;;;6.15;;
59273;SDS011;45044;41.572;24.730;2023-05-17T10:09:13;10.05;;;5.22;;
59273;SDS011;45044;41.572;24.730;2023-05-17T10:11:42;10.45;;;5.10;;
59273;SDS011;45044;41.572;24.730;2023-05-17T10:14:16;10.13;;;5.13;;
59273;SDS011;45044;41.572;24.730;2023-05-17T10:16:48;11.80;;;5.35;;
59273;SDS011;45044;41.572;24.730;2023-05-17T10:19:17;12.63;;;8.65;;
59273;SDS011;45044;41.572;24.730;2023-05-17T10:21:47;12.30;;;4.95;;
59273;SDS011;45044;41.572;24.730;2023-05-17T10:24:16;13.80;;;7.10;;
59273;SDS011;45044;41.572;24.730;2023-05-17T10:26:43;16.27;;;10.05;;
59273;SDS011;45044;41.572;24.730;2023-05-17T10:29:10;11.52;;;7.25;;
59273;SDS011;45044;41.572;24.730;2023-05-17T10:31:37;10.70;;;4.53;;
59273;SDS011;45044;41.572;24.730;2023-05-17T10:34:08;13.63;;;5.93;;
59273;SDS011;45044;41.572;24.730;2023-05-17T10:36:37;8.55;;;4.63;;
59273;SDS011;45044;41.572;24.730;2023-05-17T10:39:04;10.10;;;4.75;;
59273;SDS011;45044;41.572;24.730;2023-05-17T10:41:35;10.70;;;3.90;;
59273;SDS011;45044;41.572;24.730;2023-05-17T10:44:08;27.55;;;23.52;;
59273;SDS011;45044;41.572;24.730;2023-05-17T10:46:39;11.50;;;5.00;;
59273;SDS011;45044;41.572;24.730;2023-05-17T10:49:06;13.23;;;5.90;;
59273;SDS011;45044;41.572;24.730;2023-05-17T10:51:33;12.32;;;5.53;;
59273;SDS011;45044;41.572;24.730;2023-05-17T10:54:11;14.60;;;8.45;;
59273;SDS011;45044;41.572;24.730;2023-05-17T10:56:47;11.00;;;5.50;;
59273;SDS011;45044;41.572;24.730;2023-05-17T10:59:16;9.93;;;5.82;;
59273;SDS011;45044;41.572;24.730;2023-05-17T11:01:51;12.15;;;6.85;;
59273;SDS011;45044;41.572;24.730;2023-05-17T11:04:35;14.20;;;9.98;;
59273;SDS011;45044;41.572;24.730;2023-05-17T11:20:28;16.55;;;9.45;;
59273;SDS011;45044;41.572;24.730;2023-05-17T11:22:59;12.88;;;7.78;;
59273;SDS011;45044;41.572;24.730;2023-05-17T11:25:29;16.45;;;8.65;;
59273;SDS011;45044;41.572;24.730;2023-05-17T11:27:58;15.60;;;9.20;;
59273;SDS011;45044;41.572;24.730;2023-05-17T11:30:29;14.13;;;6.50;;
59273;SDS011;45044;41.572;24.730;2023-05-17T11:32:59;15.20;;;8.05;;
59273;SDS011;45044;41.572;24.730;2023-05-17T11:35:35;12.48;;;7.22;;
59273;SDS011;45044;41.572;24.730;2023-05-17T11:38:20;10.70;;;5.55;;
59273;SDS011;45044;41.572;24.730;2023-05-17T11:40:48;9.55;;;5.22;;
59273;SDS011;45044;41.572;24.730;2023-05-17T11:43:18;14.40;;;6.35;;
59273;SDS011;45044;41.572;24.730;2023-05-17T11:45:52;12.18;;;6.00;;
59273;SDS011;45044;41.572;24.730;2023-05-17T11:48:20;17.50;;;7.78;;
59273;SDS011;45044;41.572;24.730;2023-05-17T11:50:49;16.63;;;9.07;;
59273;SDS011;45044;41.572;24.730;2023-05-17T11:53:18;21.10;;;11.68;;
59273;SDS011;45044;41.572;24.730;2023-05-17T11:55:46;14.38;;;7.93;;
59273;SDS011;45044;41.572;24.730;2023-05-17T11:58:14;19.10;;;8.35;;
59273;SDS011;45044;41.572;24.730;2023-05-17T12:00:44;23.83;;;11.73;;
59273;SDS011;45044;41.572;24.730;2023-05-17T12:03:18;35.65;;;19.55;;
59273;SDS011;45044;41.572;24.730;2023-05-17T12:08:44;15.93;;;7.75;;
59273;SDS011;45044;41.572;24.730;2023-05-17T12:11:15;16.88;;;4.88;;
59273;SDS011;45044;41.572;24.730;2023-05-17T12:13:44;16.10;;;7.78;;
59273;SDS011;45044;41.572;24.730;2023-05-17T12:16:19;15.20;;;7.35;;
59273;SDS011;45044;41.572;24.730;2023-05-17T12:18:48;16.80;;;8.32;;
59273;SDS011;45044;41.572;24.730;2023-05-17T12:21:17;14.43;;;6.50;;
59273;SDS011;45044;41.572;24.730;2023-05-17T12:23:46;21.85;;;10.32;;
59273;SDS011;45044;41.572;24.730;2023-05-17T12:26:25;21.77;;;12.82;;
59273;SDS011;45044;41.572;24.730;2023-05-17T12:31:25;15.10;;;6.85;;
59273;SDS011;45044;41.572;24.730;2023-05-17T12:33:54;12.82;;;6.10;;
59273;SDS011;45044;41.572;24.730;2023-05-17T12:36:21;13.38;;;5.70;;
59273;SDS011;45044;41.572;24.730;2023-05-17T12:38:49;8.75;;;3.90;;
59273;SDS011;45044;41.572;24.730;2023-05-17T12:41:18;10.35;;;5.32;;
59273;SDS011;45044;41.572;24.730;2023-05-17T12:43:48;11.20;;;5.63;;
59273;SDS011;45044;41.572;24.730;2023-05-17T12:46:20;10.20;;;5.60;;
59273;SDS011;45044;41.572;24.730;2023-05-17T12:48:49;9.70;;;4.60;;
59273;SDS011;45044;41.572;24.730;2023-05-17T12:51:17;8.82;;;4.88;;
59273;SDS011;45044;41.572;24.730;2023-05-17T12:56:18;12.68;;;7.20;;
59273;SDS011;45044;41.572;24.730;2023-05-17T12:59:03;12.07;;;8.20;;
59273;SDS011;45044;41.572;24.730;2023-05-17T13:01:34;10.10;;;4.75;;
59273;SDS011;45044;41.572;24.730;2023-05-17T13:04:02;9.57;;;6.75;;
59273;SDS011;45044;41.572;24.730;2023-05-17T13:09:14;21.08;;;17.77;;
59273;SDS011;45044;41.572;24.730;2023-05-17T13:11:41;20.27;;;15.35;;
59273;SDS011;45044;41.572;24.730;2023-05-17T13:14:08;20.88;;;14.63;;
59273;SDS011;45044;41.572;24.730;2023-05-17T13:16:39;10.68;;;5.03;;
59273;SDS011;45044;41.572;24.730;2023-05-17T13:19:12;8.32;;;4.15;;
59273;SDS011;45044;41.572;24.730;2023-05-17T13:21:40;6.68;;;3.15;;
59273;SDS011;45044;41.572;24.730;2023-05-17T13:24:09;9.65;;;4.65;;
59273;SDS011;45044;41.572;24.730;2023-05-17T13:26:36;10.75;;;5.75;;
59273;SDS011;45044;41.572;24.730;2023-05-17T13:29:03;11.48;;;5.10;;
59273;SDS011;45044;41.572;24.730;2023-05-17T13:31:30;13.73;;;10.35;;
59273;SDS011;45044;41.572;24.730;2023-05-17T13:33:57;19.27;;;15.25;;
59273;SDS011;45044;41.572;24.730;2023-05-17T13:36:24;15.77;;;13.32;;
59273;SDS011;45044;41.572;24.730;2023-05-17T13:38:50;22.33;;;18.70;;
59273;SDS011;45044;41.572;24.730;2023-05-17T13:41:17;32.85;;;28.02;;
59273;SDS011;45044;41.572;24.730;2023-05-17T13:43:44;26.25;;;21.05;;
59273;SDS011;45044;41.572;24.730;2023-05-17T13:46:11;34.30;;;28.90;;
59273;SDS011;45044;41.572;24.730;2023-05-17T13:48:38;23.70;;;18.02;;
59273;SDS011;45044;41.572;24.730;2023-05-17T13:51:08;35.00;;;25.40;;
59273;SDS011;45044;41.572;24.730;2023-05-17T13:53:35;65.28;;;44.03;;
59273;SDS011;45044;41.572;24.730;2023-05-17T13:56:04;78.45;;;53.50;;
59273;SDS011;45044;41.572;24.730;2023-05-17T13:58:31;12.60;;;5.70;;
59273;SDS011;45044;41.572;24.730;2023-05-17T14:00:58;30.05;;;18.77;;
59273;SDS011;45044;41.572;24.730;2023-05-17T14:03:25;15.50;;;10.00;;
59273;SDS011;45044;41.572;24.730;2023-05-17T14:05:52;13.65;;;7.35;;
59273;SDS011;45044;41.572;24.730;2023-05-17T14:08:20;8.25;;;4.50;;
59273;SDS011;45044;41.572;24.730;2023-05-17T14:10:46;7.18;;;4.28;;
59273;SDS011;45044;41.572;24.730;2023-05-17T14:13:13;10.57;;;3.95;;
59273;SDS011;45044;41.572;24.730;2023-05-17T14:15:40;13.70;;;7.53;;
59273;SDS011;45044;41.572;24.730;2023-05-17T14:18:07;20.40;;;9.85;;
59273;SDS011;45044;41.572;24.730;2023-05-17T14:20:35;13.73;;;6.95;;
59273;SDS011;45044;41.572;24.730;2023-05-17T14:23:01;11.10;;;4.00;;
59273;SDS011;45044;41.572;24.730;2023-05-17T14:25:28;14.48;;;8.27;;
59273;SDS011;45044;41.572;24.730;2023-05-17T14:27:55;13.68;;;9.05;;
59273;SDS011;45044;41.572;24.730;2023-05-17T14:30:22;11.00;;;6.88;;
59273;SDS011;45044;41.572;24.730;2023-05-17T14:32:49;11.43;;;6.68;;
59273;SDS011;45044;41.572;24.730;2023-05-17T14:35:17;5.82;;;2.58;;
59273;SDS011;45044;41.572;24.730;2023-05-17T14:37:44;7.97;;;4.32;;
59273;SDS011;45044;41.572;24.730;2023-05-17T14:40:11;9.63;;;5.47;;
59273;SDS011;45044;41.572;24.730;2023-05-17T14:42:40;10.93;;;7.57;;
59273;SDS011;45044;41.572;24.730;2023-05-17T14:45:07;12.32;;;8.13;;
59273;SDS011;45044;41.572;24.730;2023-05-17T14:47:34;13.82;;;10.10;;
59273;SDS011;45044;41.572;24.730;2023-05-17T14:50:02;18.33;;;12.43;;
59273;SDS011;45044;41.572;24.730;2023-05-17T14:52:29;27.00;;;22.45;;
59273;SDS011;45044;41.572;24.730;2023-05-17T14:54:56;20.80;;;15.85;;
59273;SDS011;45044;41.572;24.730;2023-05-17T14:57:23;21.30;;;15.75;;
59273;SDS011;45044;41.572;24.730;2023-05-17T14:59:51;27.30;;;19.15;;
59273;SDS011;45044;41.572;24.730;2023-05-17T15:02:18;17.80;;;13.20;;